createdAt,value
2019-04-23T00:00:05.547Z,98981.73
2019-04-23T00:01:23.604Z,98982.00
2019-04-23T00:02:39.360Z,98986.09
2019-04-23T00:03:40.318Z,98981.20
2019-04-23T00:04:48.011Z,98985.06
2019-04-23T00:05:55.161Z,98985.86
2019-04-23T00:07:07.905Z,98980.53
2019-04-23T00:08:09.577Z,98982.39
2019-04-23T00:09:26.059Z,98978.30
2019-04-23T00:10:19.483Z,98978.30
2019-04-23T00:11:26.033Z,98974.56
2019-04-23T00:12:38.440Z,98972.83
2019-04-23T00:13:39.364Z,98976.92
2019-04-23T00:14:50.202Z,98968.86
2019-04-23T00:16:03.073Z,98969.86
2019-04-23T00:17:04.513Z,98970.36
2019-04-23T00:18:13.912Z,98965.27
2019-04-23T00:19:18.634Z,98967.27
2019-04-23T00:20:23.553Z,98964.03
2019-04-23T00:21:38.165Z,98966.56
2019-04-23T00:23:09.329Z,98966.70
2019-04-23T00:24:17.433Z,98961.09
2019-04-23T00:26:42.949Z,98960.27
2019-04-23T00:27:37.225Z,98955.46
2019-04-23T00:28:44.606Z,98951.63
2019-04-23T00:29:53.637Z,98956.73
2019-04-23T00:31:59.619Z,98946.43
2019-04-23T00:33:05.335Z,98947.80
2019-04-23T00:34:09.395Z,98952.26
2019-04-23T00:35:12.895Z,98942.46
2019-04-23T00:36:27.256Z,98940.39
2019-04-23T00:39:41.002Z,98938.80
2019-04-23T00:40:47.228Z,98939.66
2019-04-23T00:41:50.869Z,98933.59
2019-04-23T00:42:53.548Z,98941.09
2019-04-23T00:44:01.980Z,98936.13
2019-04-23T00:45:10.520Z,98945.69
2019-04-23T00:46:15.568Z,98933.66
2019-04-23T00:47:25.630Z,98934.66
2019-04-23T00:48:35.059Z,98930.30
2019-04-23T00:49:37.115Z,98931.05
2019-04-23T00:50:46.557Z,98924.89
2019-04-23T00:52:50.678Z,98921.42
2019-04-23T00:53:56.731Z,98924.66
2019-04-23T00:55:12.824Z,98919.33
2019-04-23T00:56:26.578Z,98912.00
2019-04-23T00:57:24.367Z,98917.59
2019-04-23T00:58:30.170Z,98913.13
2019-04-23T00:59:31.044Z,98911.13
2019-04-23T01:02:52.859Z,98905.86
2019-04-23T01:03:53.040Z,98910.59
2019-04-23T01:05:04.752Z,98914.69
2019-04-23T01:06:06.423Z,98908.98
2019-04-23T01:07:11.066Z,98903.19
2019-04-23T01:08:24.030Z,98906.02
2019-04-23T01:09:29.396Z,98896.59
2019-04-23T01:11:01.928Z,98893.36
2019-04-23T01:12:15.956Z,98901.56
2019-04-23T01:13:14.751Z,98899.22
2019-04-23T01:14:20.243Z,98898.28
2019-04-23T01:15:32.876Z,98893.81
2019-04-23T01:16:32.980Z,98898.41
2019-04-23T01:18:58.251Z,98888.48
2019-04-23T01:20:08.126Z,98884.89
2019-04-23T01:21:01.070Z,98884.56
2019-04-23T01:22:06.435Z,98884.69
2019-04-23T01:23:54.916Z,98882.45
2019-04-23T01:25:11.083Z,98883.82
2019-04-23T01:26:23.984Z,98878.75
2019-04-23T01:27:46.109Z,98877.55
2019-04-23T01:28:57.368Z,98868.33
2019-04-23T01:29:57.897Z,98875.66
2019-04-23T01:31:02.559Z,98871.06
2019-04-23T01:32:14.847Z,98880.91
2019-04-23T01:33:11.000Z,98874.45
2019-04-23T01:34:19.743Z,98873.22
2019-04-23T01:35:33.536Z,98866.16
2019-04-23T01:36:28.113Z,98871.25
2019-04-23T01:37:37.021Z,98869.75
2019-04-23T01:38:49.942Z,98867.89
2019-04-23T01:39:50.826Z,98870.88
2019-04-23T01:41:07.801Z,98869.52
2019-04-23T01:42:08.810Z,98864.92
2019-04-23T01:43:05.701Z,98866.95
2019-04-23T01:44:13.836Z,98858.89
2019-04-23T01:45:23.383Z,98859.89
2019-04-23T01:46:21.781Z,98866.78
2019-04-23T01:47:35.508Z,98860.25
2019-04-23T01:48:42.356Z,98863.35
2019-04-23T01:49:45.236Z,98860.38
2019-04-23T01:50:53.823Z,98865.84
2019-04-23T01:51:55.747Z,98852.83
2019-04-23T01:54:06.537Z,98856.05
2019-04-23T01:55:15.281Z,98862.88
2019-04-23T01:56:20.351Z,98853.82
2019-04-23T01:57:22.873Z,98849.23
2019-04-23T01:59:39.225Z,98846.30
2019-04-23T02:00:41.035Z,98843.70
2019-04-23T02:02:57.855Z,98846.92
2019-04-23T02:04:05.741Z,98838.50
2019-04-23T02:05:09.925Z,98838.73
2019-04-23T02:06:16.583Z,98848.92
2019-04-23T02:07:25.846Z,98835.03
2019-04-23T02:08:20.930Z,98841.86
2019-04-23T02:09:37.259Z,98840.49
2019-04-23T02:11:37.066Z,98830.87
2019-04-23T02:14:00.266Z,98830.50
2019-04-23T02:15:05.104Z,98833.97
2019-04-23T02:16:05.097Z,98824.17
2019-04-23T02:17:31.247Z,98830.38
2019-04-23T02:18:16.332Z,98826.04
2019-04-23T02:19:23.297Z,98824.44
2019-04-23T02:20:39.470Z,98821.45
2019-04-23T02:21:41.352Z,98823.44
2019-04-23T02:23:14.930Z,98818.77
2019-04-23T02:24:15.967Z,98821.27
2019-04-23T02:25:31.739Z,98816.44
2019-04-23T02:26:27.776Z,98814.86
2019-04-23T02:27:36.413Z,98815.86
2019-04-23T02:28:47.667Z,98798.20
2019-04-23T02:31:18.305Z,98806.20
2019-04-23T02:32:03.304Z,98808.93
2019-04-23T02:33:26.267Z,98808.56
2019-04-23T02:34:25.777Z,98805.63
2019-04-23T02:35:35.545Z,98807.48
2019-04-23T02:36:29.484Z,98804.77
2019-04-23T02:37:45.667Z,98812.58
2019-04-23T02:38:46.269Z,98809.98
2019-04-23T02:40:03.998Z,98803.16
2019-04-23T02:41:03.678Z,98800.93
2019-04-23T02:45:16.756Z,98795.89
2019-04-23T02:46:09.016Z,98804.58
2019-04-23T02:47:42.092Z,98806.06
2019-04-23T02:51:54.603Z,98798.02
2019-04-23T02:55:17.236Z,98795.70
2019-04-23T02:56:24.238Z,98798.43
2019-04-23T02:57:24.110Z,98794.47
2019-04-23T02:58:41.974Z,98798.19
2019-04-23T03:00:07.882Z,98795.09
2019-04-23T03:02:15.563Z,98795.38
2019-04-23T03:03:06.138Z,98789.93
2019-04-23T03:05:36.033Z,98788.33
2019-04-23T03:07:39.341Z,98794.28
2019-04-23T03:08:39.952Z,98793.04
2019-04-23T03:09:47.745Z,98793.91
2019-04-23T03:10:59.736Z,98798.86
2019-04-23T03:11:56.778Z,98786.84
2019-04-23T03:13:12.320Z,98796.89
2019-04-23T03:14:09.429Z,98784.41
2019-04-23T03:15:32.068Z,98791.22
2019-04-23T03:16:56.576Z,98793.95
2019-04-23T03:18:25.830Z,98790.36
2019-04-23T03:19:18.806Z,98788.84
2019-04-23T03:20:32.961Z,98789.39
2019-04-23T03:23:29.063Z,98792.61
2019-04-23T03:24:45.820Z,98792.03
2019-04-23T03:25:35.923Z,98787.41
2019-04-23T03:27:56.469Z,98785.55
2019-04-23T03:29:16.848Z,98785.55
2019-04-23T03:30:18.879Z,98780.27
2019-04-23T03:37:55.931Z,98781.37
2019-04-23T03:39:07.537Z,98771.47
2019-04-23T03:42:22.339Z,98781.14
2019-04-23T03:47:52.517Z,98778.91
2019-04-23T03:50:08.738Z,98774.61
2019-04-23T03:51:02.992Z,98772.51
2019-04-23T03:52:25.390Z,98775.97
2019-04-23T03:53:29.856Z,98776.72
2019-04-23T03:54:34.243Z,98775.73
2019-04-23T03:56:52.595Z,98773.50
2019-04-23T03:57:39.336Z,98778.34
2019-04-23T03:58:47.540Z,98772.55
2019-04-23T04:00:03.470Z,98766.86
2019-04-23T04:02:19.655Z,98779.12
2019-04-23T04:03:41.967Z,98775.66
2019-04-23T04:06:45.366Z,98776.64
2019-04-23T04:08:05.062Z,98776.64
2019-04-23T04:08:47.422Z,98773.05
2019-04-23T04:09:49.644Z,98777.51
2019-04-23T04:11:04.142Z,98772.92
2019-04-23T04:12:07.828Z,98784.31
2019-04-23T04:13:11.890Z,98770.33
2019-04-23T04:14:25.306Z,98779.24
2019-04-23T04:15:31.332Z,98779.98
2019-04-23T04:16:28.266Z,98777.26
2019-04-23T04:18:44.388Z,98777.26
2019-04-23T04:19:47.363Z,98780.97
2019-04-23T04:24:22.365Z,98776.39
2019-04-23T04:25:14.589Z,98773.67
2019-04-23T04:26:29.180Z,98772.80
2019-04-23T04:28:39.277Z,98773.55
2019-04-23T04:29:47.434Z,98769.08
2019-04-23T04:30:54.356Z,98766.73
2019-04-23T04:31:54.814Z,98765.00
2019-04-23T04:33:11.821Z,98764.00
2019-04-23T04:34:10.714Z,98764.38
2019-04-23T04:35:18.851Z,98766.73
2019-04-23T04:39:37.623Z,98766.81
2019-04-23T04:40:39.550Z,98766.44
2019-04-23T04:41:55.555Z,98764.59
2019-04-23T04:44:07.254Z,98765.70
2019-04-23T04:46:25.367Z,98762.69
2019-04-23T04:48:18.055Z,98753.15
2019-04-23T04:50:37.051Z,98753.88
2019-04-23T04:52:47.039Z,98748.06
2019-04-23T04:54:08.248Z,98742.48
2019-04-23T04:54:49.770Z,98743.85
2019-04-23T04:56:07.717Z,98741.49
2019-04-23T04:57:12.915Z,98743.72
2019-04-23T04:58:13.044Z,98742.60
2019-04-23T04:59:13.972Z,98741.23
2019-04-23T05:02:55.401Z,98740.58
2019-04-23T05:04:55.989Z,98741.81
2019-04-23T05:06:11.480Z,98736.98
2019-04-23T05:08:05.072Z,98744.00
2019-04-23T05:09:16.901Z,98744.86
2019-04-23T05:12:36.264Z,98742.52
2019-04-23T05:14:52.681Z,98738.14
2019-04-23T05:15:45.073Z,98721.06
2019-04-23T05:16:52.723Z,98735.66
2019-04-23T05:18:25.361Z,98733.67
2019-04-23T05:19:29.843Z,98733.00
2019-04-23T05:20:26.058Z,98732.88
2019-04-23T05:21:40.938Z,98739.56
2019-04-23T05:22:54.374Z,98731.25
2019-04-23T05:24:45.186Z,98724.38
2019-04-23T05:25:49.935Z,98722.39
2019-04-23T05:27:01.100Z,98716.31
2019-04-23T05:28:25.015Z,98724.19
2019-04-23T05:29:27.582Z,98725.30
2019-04-23T05:30:29.335Z,98723.80
2019-04-23T05:31:23.600Z,98719.91
2019-04-23T05:32:27.093Z,98715.56
2019-04-23T05:33:43.412Z,98720.64
2019-04-23T05:34:42.372Z,98716.42
2019-04-23T05:36:06.013Z,98714.43
2019-04-23T05:37:00.100Z,98719.09
2019-04-23T05:40:25.403Z,98717.20
2019-04-23T05:41:22.220Z,98718.03
2019-04-23T05:42:26.137Z,98715.17
2019-04-23T05:43:38.530Z,98725.31
2019-04-23T05:44:44.342Z,98711.05
2019-04-23T05:45:43.801Z,98713.11
2019-04-23T05:46:44.881Z,98716.44
2019-04-23T05:47:58.660Z,98713.08
2019-04-23T05:48:59.609Z,98717.53
2019-04-23T05:50:12.712Z,98714.50
2019-04-23T05:51:23.643Z,98719.70
2019-04-23T05:52:16.084Z,98718.03
2019-04-23T05:53:27.377Z,98714.97
2019-04-23T05:55:39.929Z,98711.67
2019-04-23T05:56:40.220Z,98711.03
2019-04-23T05:57:43.787Z,98708.00
2019-04-23T05:59:03.689Z,98706.37
2019-04-23T05:59:54.846Z,98710.16
2019-04-23T06:02:41.950Z,98711.34
2019-04-23T06:03:41.921Z,98711.41
2019-04-23T06:05:03.788Z,98710.17
2019-04-23T06:05:54.198Z,98700.80
2019-04-23T06:08:27.015Z,98711.95
2019-04-23T06:09:26.533Z,98711.16
2019-04-23T06:10:18.131Z,98704.55
2019-04-23T06:11:34.882Z,98699.68
2019-04-23T06:12:31.877Z,98701.91
2019-04-23T06:13:49.235Z,98702.61
2019-04-23T06:15:45.101Z,98704.78
2019-04-23T06:18:01.757Z,98698.15
2019-04-23T06:19:11.156Z,98693.27
2019-04-23T06:20:22.096Z,98695.73
2019-04-23T06:21:17.258Z,98696.78
2019-04-23T06:22:30.044Z,98697.01
2019-04-23T06:27:54.352Z,98686.98
2019-04-23T06:29:10.354Z,98690.67
2019-04-23T06:30:01.100Z,98683.52
2019-04-23T06:31:13.784Z,98678.05
2019-04-23T06:32:13.236Z,98682.52
2019-04-23T06:34:42.915Z,98682.06
2019-04-23T06:35:36.276Z,98673.22
2019-04-23T06:36:37.160Z,98681.50
2019-04-23T06:38:13.610Z,98681.04
2019-04-23T06:39:00.249Z,98679.75
2019-04-23T06:41:08.625Z,98674.04
2019-04-23T06:42:08.419Z,98678.86
2019-04-23T06:43:38.784Z,98685.74
2019-04-23T06:44:37.761Z,98678.77
2019-04-23T06:45:45.996Z,98679.62
2019-04-23T06:46:56.788Z,98674.59
2019-04-23T06:48:01.886Z,98681.14
2019-04-23T06:49:02.013Z,98675.72
2019-04-23T06:50:05.050Z,98676.44
2019-04-23T06:51:20.142Z,98677.52
2019-04-23T06:53:24.627Z,98679.42
2019-04-23T06:55:47.438Z,98677.30
2019-04-23T06:56:51.056Z,98669.81
2019-04-23T06:57:54.148Z,98671.25
2019-04-23T06:59:02.454Z,98672.44
2019-04-23T07:03:23.250Z,98658.50
2019-04-23T07:06:05.364Z,98661.33
2019-04-23T07:08:02.946Z,98656.64
2019-04-23T07:09:10.682Z,98655.81
2019-04-23T07:10:18.420Z,98654.14
2019-04-23T07:11:28.789Z,98650.42
2019-04-23T07:12:41.168Z,98649.48
2019-04-23T07:13:44.927Z,98650.72
2019-04-23T07:14:46.284Z,98650.60
2019-04-23T07:16:01.178Z,98642.11
2019-04-23T07:16:52.715Z,98649.38
2019-04-23T07:18:02.005Z,98641.57
2019-04-23T07:19:11.160Z,98642.30
2019-04-23T07:20:15.230Z,98642.06
2019-04-23T07:21:20.202Z,98637.97
2019-04-23T07:23:41.711Z,98640.27
2019-04-23T07:24:27.613Z,98639.78
2019-04-23T07:25:43.638Z,98630.59
2019-04-23T07:26:42.228Z,98630.25
2019-04-23T07:27:52.426Z,98629.59
2019-04-23T07:30:10.423Z,98626.91
2019-04-23T07:31:19.073Z,98629.81
2019-04-23T07:32:11.864Z,98625.55
2019-04-23T07:33:19.076Z,98632.09
2019-04-23T07:34:33.837Z,98627.31
2019-04-23T07:35:32.747Z,98629.52
2019-04-23T07:37:49.945Z,98617.17
2019-04-23T07:44:36.858Z,98615.58
2019-04-23T07:45:58.353Z,98616.60
2019-04-23T07:48:13.399Z,98610.77
2019-04-23T07:49:15.135Z,98614.06
2019-04-23T07:51:31.535Z,98608.74
2019-04-23T07:53:39.905Z,98613.56
2019-04-23T07:55:56.884Z,98617.53
2019-04-23T07:57:02.977Z,98610.16
2019-04-23T07:59:14.246Z,98607.53
2019-04-23T08:00:18.162Z,98608.07
2019-04-23T08:01:18.360Z,98602.59
2019-04-23T08:02:38.405Z,98609.16
2019-04-23T08:03:51.179Z,98602.24
2019-04-23T08:05:04.901Z,98610.10
2019-04-23T08:05:42.501Z,98615.75
2019-04-23T08:06:52.115Z,98616.09
2019-04-23T08:07:55.765Z,98614.06
2019-04-23T08:09:04.420Z,98614.98
2019-04-23T08:10:09.031Z,98613.93
2019-04-23T08:12:25.132Z,98617.73
2019-04-23T08:13:30.962Z,98622.91
2019-04-23T08:14:42.624Z,98620.84
2019-04-23T08:15:42.923Z,98623.94
2019-04-23T08:16:58.201Z,98612.30
2019-04-23T08:17:50.503Z,98624.15
2019-04-23T08:19:08.075Z,98623.48
2019-04-23T08:21:10.442Z,98618.70
2019-04-23T08:23:44.959Z,98617.34
2019-04-23T08:25:12.468Z,98618.59
2019-04-23T08:27:51.522Z,98608.45
2019-04-23T08:30:00.535Z,98610.02
2019-04-23T08:31:14.165Z,98617.07
2019-04-23T08:32:15.064Z,98620.02
2019-04-23T08:33:23.356Z,98610.14
2019-04-23T08:34:43.306Z,98612.34
2019-04-23T08:35:36.181Z,98610.61
2019-04-23T08:36:42.340Z,98608.58
2019-04-23T08:38:16.092Z,98608.61
2019-04-23T08:38:53.317Z,98605.52
2019-04-23T08:40:13.311Z,98589.56
2019-04-23T08:41:13.783Z,98604.38
2019-04-23T08:42:28.780Z,98602.30
2019-04-23T08:43:34.787Z,98612.30
2019-04-23T08:45:58.070Z,98610.25
2019-04-23T08:47:20.265Z,98608.84
2019-04-23T08:49:32.152Z,98611.27
2019-04-23T08:50:32.268Z,98607.35
2019-04-23T08:51:44.076Z,98607.86
2019-04-23T08:52:43.104Z,98603.59
2019-04-23T08:53:48.117Z,98607.38
2019-04-23T08:55:10.912Z,98605.50
2019-04-23T08:56:15.462Z,98609.77
2019-04-23T08:57:08.761Z,98598.98
2019-04-23T08:58:20.547Z,98606.55
2019-04-23T08:59:26.131Z,98608.95
2019-04-23T09:00:31.710Z,98608.63
2019-04-23T09:01:37.641Z,98615.67
2019-04-23T09:03:40.928Z,98614.17
2019-04-23T09:04:54.230Z,98616.20
2019-04-23T09:07:04.433Z,98607.30
2019-04-23T09:09:13.242Z,98608.70
2019-04-23T09:10:22.637Z,98603.55
2019-04-23T09:11:36.994Z,98602.03
2019-04-23T09:14:46.563Z,98586.77
2019-04-23T09:15:49.811Z,98595.03
2019-04-23T09:16:58.252Z,98588.83
2019-04-23T09:18:06.307Z,98595.02
2019-04-23T09:19:11.248Z,98592.61
2019-04-23T09:22:33.417Z,98588.51
2019-04-23T09:23:48.915Z,98594.34
2019-04-23T09:24:40.447Z,98585.23
2019-04-23T09:26:51.699Z,98586.46
2019-04-23T09:27:54.412Z,98592.30
2019-04-23T09:28:56.882Z,98583.72
2019-04-23T09:30:06.878Z,98593.68
2019-04-23T09:32:47.260Z,98583.35
2019-04-23T09:34:04.930Z,98585.59
2019-04-23T09:35:32.353Z,98580.95
2019-04-23T09:36:59.873Z,98586.62
2019-04-23T09:38:19.561Z,98590.73
2019-04-23T09:39:37.710Z,98584.73
2019-04-23T09:41:09.778Z,98584.91
2019-04-23T09:42:14.732Z,98580.77
2019-04-23T09:43:47.356Z,98577.87
2019-04-23T09:45:28.028Z,98575.27
2019-04-23T09:46:25.815Z,98572.01
2019-04-23T09:48:06.730Z,98566.86
2019-04-23T09:49:16.176Z,98572.19
2019-04-23T09:51:17.289Z,98569.97
2019-04-23T09:52:27.648Z,98578.20
2019-04-23T09:54:41.815Z,98572.00
2019-04-23T09:55:40.422Z,98573.73
2019-04-23T09:56:50.856Z,98559.79
2019-04-23T09:57:59.765Z,98567.87
2019-04-23T09:59:06.683Z,98558.61
2019-04-23T10:00:12.607Z,98555.48
2019-04-23T10:01:25.918Z,98556.53
2019-04-23T10:02:22.185Z,98551.34
2019-04-23T10:03:26.934Z,98552.89
2019-04-23T10:04:33.078Z,98544.78
2019-04-23T10:05:33.948Z,98549.91
2019-04-23T10:06:32.629Z,98556.11
2019-04-23T10:07:44.515Z,98552.30
2019-04-23T10:08:47.568Z,98549.81
2019-04-23T10:09:48.356Z,98552.61
2019-04-23T10:10:53.303Z,98554.98
2019-04-23T10:11:58.644Z,98558.42
2019-04-23T10:13:04.088Z,98552.53
2019-04-23T10:14:08.613Z,98553.91
2019-04-23T10:15:21.601Z,98545.65
2019-04-23T10:16:21.401Z,98552.36
2019-04-23T10:17:24.458Z,98550.08
2019-04-23T10:18:29.137Z,98550.42
2019-04-23T10:19:34.784Z,98545.24
2019-04-23T10:20:40.319Z,98538.62
2019-04-23T10:21:44.362Z,98536.55
2019-04-23T10:22:50.320Z,98534.30
2019-04-23T10:23:55.058Z,98521.73
2019-04-23T10:24:59.544Z,98519.62
2019-04-23T10:26:03.968Z,98520.98
2019-04-23T10:27:08.391Z,98526.45
2019-04-23T10:28:20.895Z,98527.48
2019-04-23T10:29:29.826Z,98523.64
2019-04-23T10:30:34.230Z,98534.98
2019-04-23T10:31:40.043Z,98527.70
2019-04-23T10:32:45.305Z,98526.94
2019-04-23T10:33:50.381Z,98540.72
2019-04-23T10:35:06.769Z,98535.84
2019-04-23T10:36:06.362Z,98529.30
2019-04-23T10:37:07.295Z,98525.14
2019-04-23T10:38:14.854Z,98524.42
2019-04-23T10:39:22.063Z,98518.91
2019-04-23T10:40:28.126Z,98523.39
2019-04-23T10:41:30.623Z,98524.38
2019-04-23T10:42:38.493Z,98524.02
2019-04-23T10:43:43.951Z,98526.02
2019-04-23T10:45:10.839Z,98520.50
2019-04-23T10:46:53.447Z,98529.80
2019-04-23T10:48:33.426Z,98524.90
2019-04-23T10:50:00.265Z,98525.58
2019-04-23T10:51:08.883Z,98514.57
2019-04-23T10:55:38.507Z,98530.87
2019-04-23T10:56:40.874Z,98528.42
2019-04-23T10:57:39.262Z,98520.27
2019-04-23T10:58:48.598Z,98526.77
2019-04-23T10:59:47.393Z,98533.94
2019-04-23T11:01:05.126Z,98532.38
2019-04-23T11:03:32.069Z,98530.84
2019-04-23T11:04:39.435Z,98521.68
2019-04-23T11:05:35.645Z,98515.48
2019-04-23T11:06:42.692Z,98517.32
2019-04-23T11:07:42.297Z,98507.20
2019-04-23T11:08:44.092Z,98514.25
2019-04-23T11:10:03.319Z,98524.16
2019-04-23T11:11:09.302Z,98518.11
2019-04-23T11:12:32.983Z,98513.11
2019-04-23T11:13:43.404Z,98516.70
2019-04-23T11:14:58.318Z,98510.66
2019-04-23T11:16:08.964Z,98507.13
2019-04-23T11:16:57.643Z,98507.13
2019-04-23T11:17:52.412Z,98511.23
2019-04-23T11:19:09.304Z,98505.97
2019-04-23T11:21:23.954Z,98521.31
2019-04-23T11:23:31.324Z,98509.15
2019-04-23T11:25:44.351Z,98509.22
2019-04-23T11:26:52.841Z,98509.22
2019-04-23T11:27:58.521Z,98509.22
2019-04-23T11:29:01.957Z,98505.78
2019-04-23T11:30:21.143Z,98503.02
2019-04-23T11:31:23.876Z,98489.06
2019-04-23T11:33:30.009Z,98508.44
2019-04-23T11:34:50.399Z,98508.44
2019-04-23T11:35:47.804Z,98505.16
2019-04-23T11:36:54.317Z,98499.30
2019-04-23T11:40:12.352Z,98498.70
2019-04-23T11:41:19.253Z,98508.70
2019-04-23T11:43:32.956Z,98515.56
2019-04-23T11:44:34.218Z,98499.75
2019-04-23T11:45:48.485Z,98490.48
2019-04-23T11:48:21.909Z,98500.16
2019-04-23T11:50:13.932Z,98503.03
2019-04-23T11:53:19.757Z,98496.27
2019-04-23T11:54:24.194Z,98493.80
2019-04-23T11:55:40.838Z,98493.80
2019-04-23T12:00:05.503Z,98487.88
2019-04-23T12:02:45.252Z,98490.48
2019-04-23T12:04:08.598Z,98490.48
2019-04-23T12:05:41.228Z,98501.80
2019-04-23T12:08:01.085Z,98490.90
2019-04-23T12:09:17.414Z,98500.11
2019-04-23T12:10:34.907Z,98500.11
2019-04-23T12:14:10.262Z,98504.06
2019-04-23T12:16:20.117Z,98499.87
2019-04-23T12:20:36.116Z,98497.02
2019-04-23T12:21:53.183Z,98511.70
2019-04-23T12:24:07.445Z,98506.62
2019-04-23T12:26:19.537Z,98513.81
2019-04-23T12:27:23.202Z,98517.17
2019-04-23T12:28:26.383Z,98517.17
2019-04-23T12:29:33.886Z,98514.73
2019-04-23T12:30:39.572Z,98510.06
2019-04-23T12:31:47.995Z,98500.53
2019-04-23T12:32:57.294Z,98500.53
2019-04-23T12:33:57.386Z,98502.77
2019-04-23T12:35:04.304Z,98505.08
2019-04-23T12:36:28.664Z,98507.76
2019-04-23T12:37:40.955Z,98503.94
2019-04-23T12:38:48.898Z,98503.34
2019-04-23T12:40:00.132Z,98503.34
2019-04-23T12:40:56.414Z,98510.92
2019-04-23T12:42:25.126Z,98510.92
2019-04-23T12:44:17.913Z,98511.55
2019-04-23T12:45:27.026Z,98502.34
2019-04-23T12:46:29.796Z,98511.89
2019-04-23T12:47:50.286Z,98508.22
2019-04-23T12:48:49.338Z,98508.22
2019-04-23T12:50:41.859Z,98512.02
2019-04-23T12:52:12.028Z,98496.05
2019-04-23T12:54:38.460Z,98504.95
2019-04-23T12:56:42.204Z,98500.73
2019-04-23T12:57:40.247Z,98498.38
2019-04-23T12:58:32.351Z,98495.15
2019-04-23T13:00:46.037Z,98496.71
2019-04-23T13:02:03.585Z,98493.14
2019-04-23T13:03:06.597Z,98490.48
2019-04-23T13:04:09.669Z,98483.28
2019-04-23T13:05:14.444Z,98477.95
2019-04-23T13:06:23.652Z,98476.36
2019-04-23T13:07:33.728Z,98472.09
2019-04-23T13:08:39.217Z,98472.02
2019-04-23T13:09:49.549Z,98476.51
2019-04-23T13:10:48.146Z,98472.19
2019-04-23T13:11:57.769Z,98475.62
2019-04-23T13:13:09.463Z,98465.27
2019-04-23T13:14:07.037Z,98467.09
2019-04-23T13:16:25.365Z,98464.45
2019-04-23T13:18:34.069Z,98465.09
2019-04-23T13:23:05.202Z,98456.00
2019-04-23T13:24:15.719Z,98454.31
2019-04-23T13:25:44.797Z,98454.31
2019-04-23T13:26:44.630Z,98449.17
2019-04-23T13:28:51.270Z,98453.36
2019-04-23T13:30:17.203Z,98442.27
2019-04-23T13:32:24.285Z,98444.94
2019-04-23T13:33:32.255Z,98451.24
2019-04-23T13:34:37.056Z,98451.24
2019-04-23T13:35:50.608Z,98443.77
2019-04-23T13:40:17.581Z,98433.91
2019-04-23T13:41:13.377Z,98414.47
2019-04-23T13:42:15.089Z,98434.93
2019-04-23T13:43:24.384Z,98438.05
2019-04-23T13:44:26.148Z,98441.25
2019-04-23T13:45:53.606Z,98434.84
2019-04-23T13:46:31.331Z,98434.84
2019-04-23T13:47:48.587Z,98426.83
2019-04-23T13:48:36.083Z,98426.44
2019-04-23T13:49:55.048Z,98420.88
2019-04-23T13:51:03.361Z,98427.69
2019-04-23T13:52:05.629Z,98430.58
2019-04-23T13:54:17.976Z,98419.47
2019-04-23T13:55:14.695Z,98429.70
2019-04-23T13:59:44.503Z,98430.20
2019-04-23T14:01:00.659Z,98421.37
2019-04-23T14:02:03.676Z,98421.58
2019-04-23T14:03:03.190Z,98421.58
2019-04-23T14:04:39.011Z,98421.58
2019-04-23T14:05:49.540Z,98430.44
2019-04-23T14:06:57.531Z,98417.87
2019-04-23T14:08:04.560Z,98426.30
2019-04-23T14:09:14.778Z,98429.74
2019-04-23T14:10:18.240Z,98429.74
2019-04-23T14:11:24.816Z,98422.80
2019-04-23T14:12:40.306Z,98424.29
2019-04-23T14:14:53.233Z,98423.25
2019-04-23T14:17:02.252Z,98421.21
2019-04-23T14:18:29.050Z,98423.02
2019-04-23T14:19:04.457Z,98421.66
2019-04-23T14:20:15.330Z,98431.16
2019-04-23T14:23:59.137Z,98416.55
2019-04-23T14:24:45.233Z,98418.36
2019-04-23T14:26:04.963Z,98418.69
2019-04-23T14:26:48.304Z,98408.53
2019-04-23T14:28:07.378Z,98408.53
2019-04-23T14:29:02.149Z,98417.63
2019-04-23T14:30:16.560Z,98413.25
2019-04-23T14:31:13.480Z,98421.33
2019-04-23T14:32:22.381Z,98414.50
2019-04-23T14:33:37.926Z,98417.60
2019-04-23T14:34:34.867Z,98416.10
2019-04-23T14:36:47.802Z,98417.27
2019-04-23T14:38:01.934Z,98416.95
2019-04-23T14:38:57.354Z,98416.95
2019-04-23T14:40:22.118Z,98414.92
2019-04-23T14:42:33.329Z,98412.81
2019-04-23T14:43:31.399Z,98410.69
2019-04-23T14:44:44.441Z,98413.98
2019-04-23T14:46:23.738Z,98414.31
2019-04-23T14:47:07.432Z,98409.92
2019-04-23T14:48:14.387Z,98409.92
2019-04-23T14:49:19.086Z,98413.12
2019-04-23T14:50:34.869Z,98401.79
2019-04-23T14:51:39.290Z,98404.30
2019-04-23T14:52:50.505Z,98409.84
2019-04-23T14:55:35.916Z,98408.64
2019-04-23T14:56:00.455Z,98408.64
2019-04-23T14:58:31.045Z,98400.74
2019-04-23T14:59:31.605Z,98395.19
2019-04-23T15:02:45.096Z,98404.39
2019-04-23T15:03:46.874Z,98403.21
2019-04-23T15:05:01.995Z,98405.55
2019-04-23T15:07:10.820Z,98404.81
2019-04-23T15:08:15.296Z,98398.27
2019-04-23T15:10:26.332Z,98398.92
2019-04-23T15:11:36.912Z,98398.92
2019-04-23T15:14:51.229Z,98400.19
2019-04-23T15:15:53.212Z,98397.09
2019-04-23T15:17:00.118Z,98400.64
2019-04-23T15:18:07.470Z,98401.70
2019-04-23T15:21:47.343Z,98402.02
2019-04-23T15:22:50.553Z,98402.02
2019-04-23T15:25:07.008Z,98406.63
2019-04-23T15:26:37.205Z,98391.25
2019-04-23T15:28:58.654Z,98395.09
2019-04-23T15:30:14.107Z,98389.98
2019-04-23T15:32:43.867Z,98402.88
2019-04-23T15:33:55.262Z,98400.84
2019-04-23T15:34:48.905Z,98372.48
2019-04-23T15:36:03.745Z,98392.86
2019-04-23T15:37:14.061Z,98400.33
2019-04-23T15:39:17.029Z,98392.66
2019-04-23T15:40:23.396Z,98383.78
2019-04-23T15:43:41.779Z,98384.44
2019-04-23T15:44:41.212Z,98387.94
2019-04-23T15:45:54.785Z,98387.94
2019-04-23T15:46:58.173Z,98387.53
2019-04-23T15:48:03.539Z,98391.70
2019-04-23T15:50:19.920Z,98383.47
2019-04-23T15:51:20.355Z,98383.35
2019-04-23T15:52:22.875Z,98381.55
2019-04-23T15:53:17.633Z,98384.20
2019-04-23T15:54:35.720Z,98382.94
2019-04-23T15:55:43.841Z,98384.73
2019-04-23T15:56:50.101Z,98390.81
2019-04-23T15:59:58.796Z,98378.31
2019-04-23T16:01:21.823Z,98378.31
2019-04-23T16:01:53.289Z,98378.11
2019-04-23T16:02:57.422Z,98391.64
2019-04-23T16:04:03.418Z,98388.02
2019-04-23T16:05:09.395Z,98383.97
2019-04-23T16:06:19.010Z,98383.97
2019-04-23T16:07:35.172Z,98386.09
2019-04-23T16:10:04.201Z,98390.45
2019-04-23T16:11:17.147Z,98382.27
2019-04-23T16:12:03.207Z,98382.27
2019-04-23T16:13:27.611Z,98391.43
2019-04-23T16:14:42.431Z,98391.43
2019-04-23T16:15:32.448Z,98398.23
2019-04-23T16:16:46.216Z,98394.61
2019-04-23T16:17:41.740Z,98396.73
2019-04-23T16:19:17.666Z,98397.26
2019-04-23T16:21:29.276Z,98389.98
2019-04-23T16:22:26.843Z,98399.05
2019-04-23T16:23:35.556Z,98399.81
2019-04-23T16:24:43.299Z,98399.81
2019-04-23T16:25:43.202Z,98396.72
2019-04-23T16:26:57.233Z,98401.93
2019-04-23T16:31:24.120Z,98404.58
2019-04-23T16:32:30.444Z,98409.06
2019-04-23T16:33:30.209Z,98408.94
2019-04-23T16:34:44.933Z,98408.64
2019-04-23T16:36:01.913Z,98411.94
2019-04-23T16:37:02.576Z,98411.48
2019-04-23T16:39:10.766Z,98412.75
2019-04-23T16:41:24.419Z,98415.42
2019-04-23T16:42:30.067Z,98416.48
2019-04-23T16:43:35.264Z,98414.12
2019-04-23T16:45:07.591Z,98411.78
2019-04-23T16:45:51.805Z,98412.19
2019-04-23T16:48:06.662Z,98410.58
2019-04-23T16:50:19.382Z,98411.16
2019-04-23T16:52:26.652Z,98408.78
2019-04-23T16:53:31.511Z,98413.70